Time;durP1;ratioP1;P1;durP2;ratioP2;P2;SDS_P1;SDS_P2;PMS_P1;PMS_P2;Temp;Humidity;BMP_temperature;BMP_pressure;BME280_temperature;BME280_humidity;BME280_pressure;Samples;Min_cycle;Max_cycle;Signal;HPM_P1;HPM_P2
2021/12/24 00:01:57;;;;;;;0.60;0.50;;;;;;;;;;5094938;28;20491;-76
2021/12/24 00:04:24;;;;;;;0.83;0.83;;;;;;;;;;5095651;28;20475;-76
2021/12/24 00:06:51;;;;;;;0.60;0.60;;;;;;;;;;5079887;28;21014;-74
2021/12/24 00:09:23;;;;;;;0.60;0.60;;;;;;;;;;5097643;28;20446;-74
2021/12/24 00:11:51;;;;;;;1.90;1.80;;;;;;;;;;5093862;28;20462;-73
2021/12/24 00:14:18;;;;;;;0.60;0.50;;;;;;;;;;5094070;28;20804;-74
2021/12/24 00:16:51;;;;;;;0.60;0.50;;;;;;;;;;5101426;28;20432;-74
2021/12/24 00:35:36;;;;;;;1.00;0.90;;;;;;;;;;5099660;28;20452;-72
2021/12/24 00:38:03;;;;;;;0.60;0.50;;;;;;;;;;5099634;28;20983;-73
2021/12/24 00:40:34;;;;;;;1.73;1.53;;;;;;;;;;5113604;28;20457;-75
2021/12/24 00:43:01;;;;;;;0.70;0.60;;;;;;;;;;5114097;28;20425;-75
2021/12/24 00:45:28;;;;;;;0.60;0.60;;;;;;;;;;5110834;28;20484;-74
2021/12/24 00:47:58;;;;;;;0.60;0.60;;;;;;;;;;5084793;28;20799;-75
2021/12/24 00:50:26;;;;;;;0.60;0.50;;;;;;;;;;5092772;28;20569;-75
2021/12/24 00:55:02;;;;;;;0.60;0.50;;;;;;;;;;5092833;28;20981;-74
2021/12/24 00:55:54;;;;;;;0.60;0.50;;;;;;;;;;5092275;28;20498;-75
2021/12/24 00:58:21;;;;;;;0.60;0.57;;;;;;;;;;5104091;28;20567;-76
2021/12/24 01:00:48;;;;;;;0.60;0.50;;;;;;;;;;5079179;28;20508;-74
2021/12/24 01:03:15;;;;;;;0.70;0.70;;;;;;;;;;5100035;28;20480;-74
2021/12/24 01:05:43;;;;;;;0.60;0.50;;;;;;;;;;5075994;28;20463;-75
2021/12/24 01:08:13;;;;;;;0.70;0.70;;;;;;;;;;5077871;28;20469;-76
2021/12/24 01:10:42;;;;;;;0.60;0.50;;;;;;;;;;5075718;28;20534;-76
2021/12/24 01:13:08;;;;;;;0.60;0.60;;;;;;;;;;5093994;28;21099;-73
2021/12/24 01:15:40;;;;;;;0.60;0.50;;;;;;;;;;5094721;28;20533;-75
2021/12/24 01:26:17;;;;;;;1.10;0.73;;;;;;;;;;5114271;28;20421;-74
2021/12/24 01:29:02;;;;;;;1.73;1.63;;;;;;;;;;5091026;28;20850;-74
2021/12/24 01:40:06;;;;;;;0.70;0.70;;;;;;;;;;5092928;28;20516;-78
2021/12/24 01:42:47;;;;;;;0.60;0.50;;;;;;;;;;5092139;28;20536;-75
2021/12/24 01:45:20;;;;;;;0.60;0.50;;;;;;;;;;5103729;28;20485;-74
2021/12/24 01:47:51;;;;;;;1.57;1.47;;;;;;;;;;5102353;28;20441;-73
2021/12/24 01:50:31;;;;;;;0.60;0.50;;;;;;;;;;5091941;28;20803;-74
2021/12/24 01:53:06;;;;;;;1.40;0.70;;;;;;;;;;5092039;28;20994;-77
2021/12/24 01:55:40;;;;;;;0.70;0.70;;;;;;;;;;5087853;28;20458;-76
2021/12/24 01:58:09;;;;;;;0.60;0.60;;;;;;;;;;5092831;28;20475;-74
2021/12/24 02:00:40;;;;;;;0.60;0.50;;;;;;;;;;5108221;28;20445;-76
2021/12/24 02:03:15;;;;;;;0.60;0.50;;;;;;;;;;5112250;28;20444;-76
2021/12/24 02:05:46;;;;;;;0.60;0.50;;;;;;;;;;5080433;28;20453;-76
2021/12/24 02:08:18;;;;;;;0.60;0.50;;;;;;;;;;5101236;28;20468;-77
2021/12/24 02:10:49;;;;;;;0.70;0.60;;;;;;;;;;5100524;28;20529;-77
2021/12/24 02:13:41;;;;;;;0.60;0.50;;;;;;;;;;5116185;28;20482;-76
2021/12/24 02:16:33;;;;;;;0.77;0.77;;;;;;;;;;5080874;28;20466;-75
2021/12/24 02:30:32;;;;;;;1.77;1.67;;;;;;;;;;5095596;28;20535;-76
2021/12/24 02:33:03;;;;;;;0.60;0.60;;;;;;;;;;5095190;28;20472;-76
2021/12/24 02:35:34;;;;;;;0.60;0.50;;;;;;;;;;5094988;28;20761;-76
2021/12/24 02:38:08;;;;;;;0.60;0.60;;;;;;;;;;5108285;28;21032;-76
2021/12/24 02:40:40;;;;;;;0.60;0.60;;;;;;;;;;5080041;28;20543;-74
2021/12/24 02:43:14;;;;;;;0.70;0.60;;;;;;;;;;5096831;28;20437;-75
2021/12/24 02:45:46;;;;;;;0.60;0.60;;;;;;;;;;5105624;28;20448;-76
2021/12/24 02:53:58;;;;;;;0.60;0.60;;;;;;;;;;5096210;28;20475;-75
2021/12/24 02:56:29;;;;;;;0.60;0.60;;;;;;;;;;5111265;28;20531;-75
2021/12/24 02:58:56;;;;;;;0.90;0.90;;;;;;;;;;5103272;28;20985;-78
2021/12/24 03:01:26;;;;;;;0.60;0.50;;;;;;;;;;5100239;28;20941;-75
2021/12/24 03:03:53;;;;;;;0.60;0.50;;;;;;;;;;5083575;28;20475;-75
2021/12/24 03:06:21;;;;;;;0.60;0.60;;;;;;;;;;5118259;28;20445;-76
2021/12/24 03:08:50;;;;;;;0.60;0.50;;;;;;;;;;5115851;28;20476;-74
2021/12/24 03:11:21;;;;;;;0.60;0.60;;;;;;;;;;5114877;28;20540;-77
2021/12/24 03:13:49;;;;;;;0.60;0.60;;;;;;;;;;5097354;28;20489;-77
2021/12/24 03:16:16;;;;;;;0.60;0.50;;;;;;;;;;5115111;28;20437;-77
2021/12/24 03:18:46;;;;;;;0.60;0.50;;;;;;;;;;5077419;28;20509;-76
2021/12/24 03:26:32;;;;;;;0.60;0.60;;;;;;;;;;5114918;28;20460;-77
2021/12/24 03:29:01;;;;;;;0.70;0.70;;;;;;;;;;5082911;28;20459;-76
2021/12/24 03:31:28;;;;;;;0.60;0.60;;;;;;;;;;5096652;28;20510;-76
2021/12/24 03:33:57;;;;;;;0.80;0.80;;;;;;;;;;5080491;28;20541;-74
2021/12/24 03:36:24;;;;;;;0.70;0.70;;;;;;;;;;5114626;28;20440;-76
2021/12/24 03:38:52;;;;;;;0.60;0.60;;;;;;;;;;5093425;28;20485;-77
2021/12/24 03:41:19;;;;;;;1.10;1.00;;;;;;;;;;5097023;28;20967;-76
2021/12/24 03:43:48;;;;;;;2.03;1.20;;;;;;;;;;5110817;28;20525;-75
2021/12/24 03:46:21;;;;;;;1.53;1.00;;;;;;;;;;5114429;28;20454;-77
2021/12/24 03:48:59;;;;;;;1.17;1.07;;;;;;;;;;5101027;28;20508;-76
2021/12/24 03:51:37;;;;;;;0.60;0.60;;;;;;;;;;5079472;28;20477;-77
2021/12/24 03:56:50;;;;;;;1.83;1.17;;;;;;;;;;5094876;28;20436;-74
2021/12/24 03:59:41;;;;;;;0.60;0.50;;;;;;;;;;5093158;28;20488;-76
2021/12/24 04:02:27;;;;;;;1.10;0.93;;;;;;;;;;5104918;28;20432;-73
2021/12/24 04:05:13;;;;;;;0.60;0.53;;;;;;;;;;5114598;28;20403;-73
2021/12/24 04:07:58;;;;;;;0.60;0.50;;;;;;;;;;5097224;28;21015;-74
2021/12/24 04:10:41;;;;;;;0.60;0.50;;;;;;;;;;5093570;28;20441;-74
2021/12/24 04:13:38;;;;;;;0.60;0.60;;;;;;;;;;5092582;28;20446;-77
2021/12/24 04:16:08;;;;;;;0.60;0.50;;;;;;;;;;5086567;28;20502;-77
2021/12/24 04:27:11;;;;;;;1.07;1.07;;;;;;;;;;5114977;28;20469;-75
2021/12/24 04:29:37;;;;;;;0.60;0.60;;;;;;;;;;5075708;28;20891;-75
2021/12/24 04:32:19;;;;;;;0.60;0.50;;;;;;;;;;5077166;28;20543;-75
2021/12/24 04:35:16;;;;;;;0.60;0.50;;;;;;;;;;5094577;28;20447;-76
2021/12/24 04:38:08;;;;;;;0.60;0.50;;;;;;;;;;5096353;28;20980;-77
2021/12/24 04:51:51;;;;;;;0.60;0.60;;;;;;;;;;5104234;28;20448;-76
2021/12/24 05:03:00;;;;;;;0.80;0.80;;;;;;;;;;5102289;28;20495;-75
2021/12/24 05:05:42;;;;;;;0.60;0.50;;;;;;;;;;5091855;28;20960;-75
2021/12/24 05:10:38;;;;;;;0.83;0.83;;;;;;;;;;5092347;28;20467;-77
2021/12/24 05:13:08;;;;;;;0.60;0.50;;;;;;;;;;5075862;28;20446;-75
2021/12/24 05:16:04;;;;;;;0.60;0.60;;;;;;;;;;5093763;28;20453;-77
2021/12/24 05:21:50;;;;;;;0.60;0.50;;;;;;;;;;5109523;28;20439;-76
2021/12/24 05:24:18;;;;;;;0.60;0.50;;;;;;;;;;5112567;28;20443;-73
2021/12/24 05:26:46;;;;;;;1.33;1.23;;;;;;;;;;5105005;28;20453;-73
2021/12/24 05:29:13;;;;;;;0.70;0.70;;;;;;;;;;5093621;28;20520;-76
2021/12/24 05:31:40;;;;;;;0.93;0.93;;;;;;;;;;5075572;28;20467;-75
2021/12/24 05:34:07;;;;;;;0.60;0.60;;;;;;;;;;5092078;28;20812;-74
2021/12/24 05:36:34;;;;;;;0.60;0.50;;;;;;;;;;5096654;28;20447;-77
2021/12/24 05:39:02;;;;;;;3.23;1.77;;;;;;;;;;5099575;28;20522;-75
2021/12/24 05:41:29;;;;;;;0.60;0.50;;;;;;;;;;5115648;28;20803;-74
2021/12/24 05:43:59;;;;;;;0.70;0.60;;;;;;;;;;5091267;28;20473;-76
2021/12/24 05:46:26;;;;;;;0.60;0.60;;;;;;;;;;5103086;28;20447;-74
2021/12/24 05:49:06;;;;;;;0.93;0.93;;;;;;;;;;5107966;27;20856;-76
2021/12/24 05:51:33;;;;;;;0.60;0.60;;;;;;;;;;5100824;28;21008;-74
2021/12/24 05:54:23;;;;;;;1.47;1.23;;;;;;;;;;5095247;28;20442;-76
2021/12/24 05:56:53;;;;;;;0.70;0.70;;;;;;;;;;5104344;28;20499;-74
2021/12/24 05:59:19;;;;;;;0.70;0.60;;;;;;;;;;5102298;27;20465;-73
2021/12/24 06:01:46;;;;;;;0.70;0.70;;;;;;;;;;5087511;28;20450;-74
2021/12/24 06:04:13;;;;;;;0.60;0.60;;;;;;;;;;5099660;28;20429;-76
2021/12/24 06:06:40;;;;;;;0.70;0.67;;;;;;;;;;5104515;28;20445;-72
2021/12/24 06:09:07;;;;;;;0.70;0.60;;;;;;;;;;5111865;28;20537;-74
2021/12/24 06:11:35;;;;;;;0.60;0.53;;;;;;;;;;5102091;28;20538;-75
2021/12/24 06:14:09;;;;;;;0.60;0.50;;;;;;;;;;5118780;27;20493;-74
2021/12/24 06:16:37;;;;;;;0.60;0.60;;;;;;;;;;5101390;28;20448;-78
2021/12/24 06:19:04;;;;;;;0.60;0.50;;;;;;;;;;5105009;27;20861;-75
2021/12/24 06:21:30;;;;;;;0.60;0.60;;;;;;;;;;5099891;28;20499;-76
2021/12/24 06:23:57;;;;;;;0.60;0.50;;;;;;;;;;5098365;28;20437;-76
2021/12/24 06:26:23;;;;;;;0.60;0.50;;;;;;;;;;5098820;28;21025;-73
2021/12/24 06:28:52;;;;;;;0.90;0.80;;;;;;;;;;5087928;28;21047;-74
2021/12/24 06:31:20;;;;;;;0.60;0.60;;;;;;;;;;5103065;27;20786;-74
2021/12/24 06:33:47;;;;;;;0.60;0.60;;;;;;;;;;5110678;28;20449;-74
2021/12/24 06:36:14;;;;;;;0.60;0.50;;;;;;;;;;5110301;28;20429;-75
2021/12/24 06:38:41;;;;;;;0.60;0.50;;;;;;;;;;5098191;28;20556;-74
2021/12/24 06:41:09;;;;;;;0.60;0.50;;;;;;;;;;5110187;28;20468;-73
2021/12/24 06:43:35;;;;;;;0.60;0.50;;;;;;;;;;5118548;27;20431;-74
2021/12/24 06:46:10;;;;;;;0.60;0.60;;;;;;;;;;5097248;28;20856;-75
2021/12/24 06:48:37;;;;;;;0.70;0.70;;;;;;;;;;5106382;28;21009;-74
2021/12/24 06:51:05;;;;;;;0.60;0.50;;;;;;;;;;5098104;28;20453;-75
2021/12/24 06:53:31;;;;;;;0.60;0.50;;;;;;;;;;5077852;28;20556;-74
2021/12/24 06:55:59;;;;;;;0.80;0.80;;;;;;;;;;5079974;28;20472;-74
2021/12/24 06:58:26;;;;;;;0.60;0.50;;;;;;;;;;5096628;28;20430;-75
2021/12/24 07:00:54;;;;;;;0.60;0.50;;;;;;;;;;5095872;28;20471;-75
2021/12/24 07:03:24;;;;;;;0.60;0.50;;;;;;;;;;5094660;28;20421;-76
2021/12/24 07:05:50;;;;;;;0.60;0.50;;;;;;;;;;5110949;28;20448;-76
2021/12/24 07:08:17;;;;;;;0.87;0.87;;;;;;;;;;5107073;28;20462;-75
2021/12/24 07:10:44;;;;;;;1.20;1.10;;;;;;;;;;5084223;28;20439;-76
2021/12/24 07:13:11;;;;;;;0.60;0.60;;;;;;;;;;5099722;28;20491;-75
2021/12/24 07:15:37;;;;;;;0.70;0.60;;;;;;;;;;5113650;28;20488;-74
2021/12/24 07:18:05;;;;;;;0.60;0.50;;;;;;;;;;5085009;28;20447;-76
2021/12/24 07:20:34;;;;;;;1.00;1.00;;;;;;;;;;5095212;28;20463;-76
2021/12/24 07:23:01;;;;;;;1.00;1.00;;;;;;;;;;5112046;28;20556;-75
2021/12/24 07:25:29;;;;;;;0.60;0.60;;;;;;;;;;5114324;28;20432;-76
2021/12/24 07:27:56;;;;;;;0.60;0.60;;;;;;;;;;5114878;28;20481;-74
2021/12/24 07:30:22;;;;;;;0.60;0.60;;;;;;;;;;5094804;28;20471;-77
2021/12/24 07:32:49;;;;;;;0.60;0.60;;;;;;;;;;5097665;28;20440;-75
2021/12/24 07:35:16;;;;;;;0.60;0.50;;;;;;;;;;5094301;28;20443;-75
2021/12/24 07:37:44;;;;;;;0.60;0.60;;;;;;;;;;5097261;28;20523;-75
2021/12/24 07:40:15;;;;;;;0.60;0.50;;;;;;;;;;5077287;28;20467;-76
2021/12/24 07:42:42;;;;;;;0.60;0.57;;;;;;;;;;5094291;28;20590;-75
2021/12/24 07:45:09;;;;;;;0.70;0.70;;;;;;;;;;5077282;28;20506;-75
2021/12/24 07:47:40;;;;;;;0.60;0.60;;;;;;;;;;5096840;28;20433;-74
2021/12/24 07:52:57;;;;;;;0.60;0.50;;;;;;;;;;5112572;28;20495;-75
2021/12/24 07:55:24;;;;;;;0.60;0.50;;;;;;;;;;5112225;27;20420;-76
2021/12/24 07:57:52;;;;;;;1.10;1.00;;;;;;;;;;5098783;28;20481;-76
2021/12/24 08:00:22;;;;;;;0.60;0.50;;;;;;;;;;5098751;28;20472;-75
2021/12/24 08:02:50;;;;;;;0.60;0.60;;;;;;;;;;5108646;28;20439;-75
2021/12/24 08:05:27;;;;;;;0.60;0.50;;;;;;;;;;5094034;28;20489;-75
2021/12/24 08:07:55;;;;;;;0.60;0.60;;;;;;;;;;5100019;28;20475;-74
2021/12/24 08:10:24;;;;;;;0.60;0.50;;;;;;;;;;5098346;28;20441;-74
2021/12/24 08:12:51;;;;;;;0.97;0.97;;;;;;;;;;5115041;28;20443;-75
2021/12/24 08:15:19;;;;;;;0.60;0.50;;;;;;;;;;5114758;28;20436;-75
2021/12/24 08:17:46;;;;;;;0.60;0.60;;;;;;;;;;5115094;28;20510;-75
2021/12/24 08:20:13;;;;;;;0.90;0.90;;;;;;;;;;5096062;28;20548;-74
2021/12/24 08:22:41;;;;;;;0.60;0.50;;;;;;;;;;5095289;28;20457;-74
2021/12/24 08:25:09;;;;;;;0.60;0.50;;;;;;;;;;5085923;28;20550;-74
2021/12/24 08:27:39;;;;;;;1.10;1.00;;;;;;;;;;5104546;28;20443;-75
2021/12/24 08:30:08;;;;;;;0.60;0.60;;;;;;;;;;5112576;28;20436;-74
2021/12/24 08:32:38;;;;;;;0.60;0.50;;;;;;;;;;5113623;28;20478;-75
2021/12/24 08:35:07;;;;;;;0.60;0.60;;;;;;;;;;5113354;28;20445;-75
2021/12/24 08:37:34;;;;;;;0.60;0.50;;;;;;;;;;5109681;28;20500;-74
2021/12/24 08:40:02;;;;;;;0.60;0.50;;;;;;;;;;5111382;28;20467;-74
2021/12/24 08:42:29;;;;;;;0.60;0.60;;;;;;;;;;5106267;28;20458;-74
2021/12/24 08:44:58;;;;;;;0.60;0.50;;;;;;;;;;5112862;28;20789;-75
2021/12/24 08:47:25;;;;;;;0.60;0.50;;;;;;;;;;5114508;28;20425;-76
2021/12/24 08:49:52;;;;;;;0.60;0.50;;;;;;;;;;5110478;28;20459;-75
2021/12/24 08:52:20;;;;;;;0.60;0.60;;;;;;;;;;5111477;28;20490;-75
2021/12/24 08:54:47;;;;;;;0.60;0.57;;;;;;;;;;5110994;28;20543;-76
2021/12/24 08:57:14;;;;;;;0.70;0.70;;;;;;;;;;5093447;28;21018;-77
2021/12/24 08:59:41;;;;;;;0.60;0.53;;;;;;;;;;5092261;28;20428;-75
2021/12/24 09:02:09;;;;;;;0.60;0.50;;;;;;;;;;5092752;28;20421;-76
2021/12/24 09:04:36;;;;;;;0.60;0.50;;;;;;;;;;5098890;28;20845;-75
2021/12/24 09:07:04;;;;;;;0.60;0.50;;;;;;;;;;5095491;28;21020;-74
2021/12/24 09:09:30;;;;;;;0.60;0.60;;;;;;;;;;5112687;28;20479;-76
2021/12/24 09:11:57;;;;;;;0.60;0.50;;;;;;;;;;5112418;28;20410;-75
2021/12/24 09:14:27;;;;;;;0.70;0.70;;;;;;;;;;5088384;28;20434;-75
2021/12/24 09:16:54;;;;;;;0.60;0.50;;;;;;;;;;5091860;28;20437;-74
2021/12/24 09:19:26;;;;;;;0.60;0.60;;;;;;;;;;5109448;28;20437;-75
2021/12/24 09:21:55;;;;;;;0.60;0.50;;;;;;;;;;5108595;28;20479;-75
2021/12/24 09:24:24;;;;;;;0.60;0.50;;;;;;;;;;5105200;28;20488;-75
2021/12/24 09:26:56;;;;;;;0.60;0.60;;;;;;;;;;5087331;28;20531;-73
2021/12/24 09:29:24;;;;;;;0.60;0.50;;;;;;;;;;5102255;28;20794;-73
2021/12/24 09:31:51;;;;;;;0.60;0.60;;;;;;;;;;5086098;28;20441;-75
2021/12/24 09:34:18;;;;;;;0.60;0.50;;;;;;;;;;5111371;28;20525;-73
2021/12/24 09:36:49;;;;;;;0.60;0.50;;;;;;;;;;5110229;28;20787;-76
2021/12/24 09:39:16;;;;;;;0.60;0.53;;;;;;;;;;5094104;28;20482;-73
2021/12/24 09:41:44;;;;;;;0.60;0.60;;;;;;;;;;5099081;28;20469;-74
2021/12/24 09:44:11;;;;;;;0.60;0.50;;;;;;;;;;5112027;28;20417;-74
2021/12/24 09:46:42;;;;;;;0.70;0.70;;;;;;;;;;5113722;28;20445;-74
2021/12/24 09:49:09;;;;;;;0.60;0.60;;;;;;;;;;5104662;28;20487;-73
2021/12/24 09:51:38;;;;;;;0.60;0.50;;;;;;;;;;5094261;28;20433;-72
2021/12/24 09:54:10;;;;;;;0.60;0.60;;;;;;;;;;5100364;28;20775;-73
2021/12/24 09:56:37;;;;;;;0.60;0.50;;;;;;;;;;5093087;28;20407;-73
2021/12/24 09:59:04;;;;;;;0.60;0.50;;;;;;;;;;5091866;28;20459;-76
2021/12/24 10:01:32;;;;;;;0.60;0.60;;;;;;;;;;5091933;28;20470;-72
2021/12/24 10:04:02;;;;;;;0.60;0.60;;;;;;;;;;5095440;28;20525;-74
2021/12/24 10:06:29;;;;;;;0.60;0.60;;;;;;;;;;5079916;28;20843;-74
2021/12/24 10:08:59;;;;;;;0.60;0.50;;;;;;;;;;5097830;28;21050;-73
2021/12/24 10:11:31;;;;;;;0.60;0.50;;;;;;;;;;5105681;28;20619;-73
2021/12/24 10:14:03;;;;;;;0.60;0.50;;;;;;;;;;5112928;28;20483;-73
2021/12/24 10:16:30;;;;;;;0.60;0.60;;;;;;;;;;5095653;28;20797;-73
2021/12/24 10:18:59;;;;;;;1.00;0.90;;;;;;;;;;5113565;28;20426;-75
2021/12/24 10:21:29;;;;;;;0.60;0.60;;;;;;;;;;5108345;28;20693;-74
2021/12/24 10:23:57;;;;;;;0.60;0.60;;;;;;;;;;5102336;28;20830;-74
2021/12/24 10:26:25;;;;;;;0.60;0.60;;;;;;;;;;5094586;28;20495;-75
2021/12/24 10:28:55;;;;;;;0.60;0.57;;;;;;;;;;5115440;28;20410;-76
2021/12/24 10:31:24;;;;;;;0.60;0.60;;;;;;;;;;5115998;28;20441;-75
2021/12/24 10:34:10;;;;;;;0.60;0.60;;;;;;;;;;5114212;28;20441;-72
2021/12/24 10:36:59;;;;;;;0.90;0.90;;;;;;;;;;5099878;28;20867;-72
2021/12/24 10:39:28;;;;;;;0.70;0.70;;;;;;;;;;5106794;28;20495;-73
2021/12/24 10:41:56;;;;;;;0.60;0.60;;;;;;;;;;5095231;28;20574;-74
2021/12/24 10:44:25;;;;;;;0.60;0.60;;;;;;;;;;5100155;28;20431;-74
2021/12/24 10:46:59;;;;;;;0.70;0.70;;;;;;;;;;5116895;27;20408;-73
2021/12/24 10:54:51;;;;;;;0.70;0.70;;;;;;;;;;5108556;28;20435;-74
2021/12/24 10:57:18;;;;;;;0.80;0.80;;;;;;;;;;5105187;28;20482;-73
2021/12/24 10:59:51;;;;;;;0.80;0.80;;;;;;;;;;5105291;28;20922;-74
2021/12/24 11:02:18;;;;;;;0.60;0.60;;;;;;;;;;5094580;28;20673;-74
2021/12/24 11:04:45;;;;;;;0.60;0.60;;;;;;;;;;5097274;28;20454;-74
2021/12/24 11:07:36;;;;;;;0.60;0.60;;;;;;;;;;5108120;28;20562;-75
2021/12/24 11:10:14;;;;;;;0.70;0.70;;;;;;;;;;5112255;28;20516;-74
2021/12/24 11:12:44;;;;;;;0.70;0.70;;;;;;;;;;5111129;28;20456;-73
2021/12/24 11:15:20;;;;;;;1.20;1.10;;;;;;;;;;5114267;28;20444;-74
2021/12/24 11:17:47;;;;;;;0.70;0.60;;;;;;;;;;5116072;28;20487;-73
2021/12/24 11:20:14;;;;;;;0.70;0.70;;;;;;;;;;5111910;28;20439;-73
2021/12/24 11:22:53;;;;;;;0.83;0.83;;;;;;;;;;5108556;28;20474;-73
2021/12/24 11:25:21;;;;;;;0.70;0.70;;;;;;;;;;5083727;28;20453;-74
2021/12/24 11:27:49;;;;;;;0.60;0.60;;;;;;;;;;5095395;28;20427;-72
2021/12/24 11:30:17;;;;;;;1.03;0.97;;;;;;;;;;5096774;28;20454;-76
2021/12/24 11:32:46;;;;;;;0.60;0.60;;;;;;;;;;5113715;28;20446;-73
2021/12/24 11:35:13;;;;;;;0.70;0.60;;;;;;;;;;5115542;27;20436;-73
2021/12/24 11:37:42;;;;;;;0.70;0.60;;;;;;;;;;5103156;28;20462;-73
2021/12/24 11:40:09;;;;;;;0.60;0.50;;;;;;;;;;5101661;28;20448;-73
2021/12/24 11:42:39;;;;;;;0.60;0.60;;;;;;;;;;5117727;28;20453;-72
2021/12/24 11:45:07;;;;;;;0.60;0.53;;;;;;;;;;5113695;28;20895;-72
2021/12/24 11:47:34;;;;;;;0.67;0.67;;;;;;;;;;5098824;28;20939;-74
2021/12/24 11:50:04;;;;;;;0.60;0.60;;;;;;;;;;5093902;28;20437;-73
2021/12/24 11:52:30;;;;;;;0.60;0.60;;;;;;;;;;5094697;28;20471;-73
2021/12/24 11:54:57;;;;;;;0.60;0.60;;;;;;;;;;5076874;28;20432;-73
2021/12/24 11:57:25;;;;;;;0.60;0.60;;;;;;;;;;5104905;28;20487;-73
2021/12/24 11:59:54;;;;;;;3.90;1.23;;;;;;;;;;5099906;28;20436;-72
2021/12/24 12:02:34;;;;;;;0.70;0.60;;;;;;;;;;5093739;28;20545;-72
2021/12/24 12:05:26;;;;;;;0.60;0.60;;;;;;;;;;5095722;28;20529;-73
2021/12/24 12:08:08;;;;;;;0.60;0.60;;;;;;;;;;5076475;28;20568;-72
2021/12/24 12:10:50;;;;;;;0.60;0.60;;;;;;;;;;5095012;28;20952;-73
2021/12/24 12:13:36;;;;;;;0.70;0.60;;;;;;;;;;5098758;28;20983;-72
2021/12/24 12:16:03;;;;;;;0.70;0.70;;;;;;;;;;5108959;28;20810;-73
2021/12/24 12:18:33;;;;;;;0.70;0.60;;;;;;;;;;5101978;28;20437;-73
2021/12/24 12:21:07;;;;;;;0.73;0.73;;;;;;;;;;5096753;28;20427;-72
2021/12/24 12:23:51;;;;;;;0.70;0.67;;;;;;;;;;5109092;28;20460;-70
2021/12/24 12:26:33;;;;;;;0.70;0.70;;;;;;;;;;5094395;28;20437;-72
2021/12/24 12:29:17;;;;;;;0.70;0.70;;;;;;;;;;5090316;28;20441;-72
2021/12/24 12:31:45;;;;;;;1.63;1.53;;;;;;;;;;5099682;28;20491;-72
2021/12/24 12:34:30;;;;;;;0.60;0.60;;;;;;;;;;5106119;28;20806;-73
2021/12/24 12:37:10;;;;;;;0.60;0.60;;;;;;;;;;5105529;28;20461;-72
2021/12/24 12:39:37;;;;;;;0.80;0.80;;;;;;;;;;5102164;28;20898;-73
2021/12/24 12:42:04;;;;;;;0.70;0.60;;;;;;;;;;5092330;28;21004;-73
2021/12/24 12:44:34;;;;;;;0.60;0.60;;;;;;;;;;5097131;28;20458;-72
2021/12/24 12:47:08;;;;;;;0.70;0.70;;;;;;;;;;5100626;28;20762;-71
2021/12/24 12:49:36;;;;;;;0.60;0.60;;;;;;;;;;5096616;28;20533;-72
2021/12/24 12:52:06;;;;;;;1.53;1.43;;;;;;;;;;5101494;28;20566;-73
2021/12/24 12:54:36;;;;;;;0.70;0.70;;;;;;;;;;5108178;28;21037;-73
2021/12/24 12:57:10;;;;;;;2.30;1.43;;;;;;;;;;5094623;28;20444;-73
2021/12/24 12:59:39;;;;;;;0.80;0.80;;;;;;;;;;5093704;28;20467;-72
2021/12/24 13:02:06;;;;;;;0.70;0.60;;;;;;;;;;5076103;28;20452;-73
2021/12/24 13:04:33;;;;;;;0.63;0.60;;;;;;;;;;5077042;28;20445;-73
2021/12/24 13:07:00;;;;;;;0.60;0.60;;;;;;;;;;5091610;28;20525;-73
2021/12/24 13:09:34;;;;;;;0.70;0.70;;;;;;;;;;5091717;28;20965;-72
2021/12/24 13:12:02;;;;;;;0.70;0.60;;;;;;;;;;5098667;28;20440;-72
2021/12/24 13:14:31;;;;;;;0.77;0.77;;;;;;;;;;5112126;28;20432;-73
2021/12/24 13:17:33;;;;;;;0.70;0.60;;;;;;;;;;5095750;28;20445;-73
2021/12/24 13:20:08;;;;;;;0.70;0.60;;;;;;;;;;5106539;28;20465;-72
2021/12/24 13:22:37;;;;;;;0.60;0.60;;;;;;;;;;5112453;28;20783;-72
2021/12/24 13:25:05;;;;;;;0.60;0.50;;;;;;;;;;5090630;28;20495;-72
2021/12/24 13:27:37;;;;;;;0.60;0.60;;;;;;;;;;5116528;28;20800;-71
2021/12/24 13:30:15;;;;;;;0.70;0.60;;;;;;;;;;5113712;28;20473;-73
2021/12/24 13:32:46;;;;;;;0.70;0.60;;;;;;;;;;5096339;28;20445;-73
2021/12/24 13:35:13;;;;;;;0.60;0.60;;;;;;;;;;5111127;28;21006;-73
2021/12/24 13:37:45;;;;;;;0.60;0.60;;;;;;;;;;5097781;28;20485;-72
2021/12/24 13:40:12;;;;;;;0.60;0.60;;;;;;;;;;5093456;28;20546;-73
2021/12/24 13:42:41;;;;;;;0.60;0.60;;;;;;;;;;5093015;28;20497;-73
2021/12/24 13:45:07;;;;;;;0.90;0.80;;;;;;;;;;5105287;28;20797;-72
2021/12/24 13:47:52;;;;;;;0.60;0.60;;;;;;;;;;5110703;28;20410;-72
2021/12/24 13:55:36;;;;;;;0.70;0.70;;;;;;;;;;5092360;28;20426;-73
2021/12/24 13:58:04;;;;;;;0.60;0.60;;;;;;;;;;5092982;28;20526;-72
2021/12/24 14:00:32;;;;;;;0.70;0.70;;;;;;;;;;5095086;28;20446;-73
2021/12/24 14:03:01;;;;;;;0.60;0.60;;;;;;;;;;5116014;28;20464;-74
2021/12/24 14:05:29;;;;;;;0.70;0.70;;;;;;;;;;5099466;28;20437;-74
2021/12/24 14:08:03;;;;;;;0.67;0.63;;;;;;;;;;5112183;28;20468;-75
2021/12/24 14:10:30;;;;;;;0.60;0.60;;;;;;;;;;5102063;28;20488;-72
2021/12/24 14:13:04;;;;;;;0.60;0.60;;;;;;;;;;5106699;28;20451;-73
2021/12/24 14:15:45;;;;;;;0.60;0.50;;;;;;;;;;5118363;28;20458;-73
2021/12/24 14:18:30;;;;;;;0.70;0.60;;;;;;;;;;5119949;28;20415;-72
2021/12/24 14:23:32;;;;;;;0.60;0.60;;;;;;;;;;5118005;28;20489;-73
2021/12/24 14:26:00;;;;;;;0.60;0.60;;;;;;;;;;5098689;28;20450;-73
2021/12/24 14:28:27;;;;;;;0.87;0.87;;;;;;;;;;5101697;28;20953;-73
2021/12/24 14:30:59;;;;;;;0.83;0.83;;;;;;;;;;5119115;28;20430;-73
2021/12/24 14:33:26;;;;;;;0.60;0.60;;;;;;;;;;5117951;28;20494;-73
2021/12/24 14:35:53;;;;;;;0.80;0.80;;;;;;;;;;5104985;28;20971;-73
2021/12/24 14:38:24;;;;;;;0.60;0.50;;;;;;;;;;5095417;28;21038;-72
2021/12/24 14:40:54;;;;;;;0.60;0.60;;;;;;;;;;5100922;28;21426;-73
2021/12/24 14:43:21;;;;;;;0.60;0.60;;;;;;;;;;5113372;28;20490;-74
2021/12/24 14:45:49;;;;;;;0.60;0.60;;;;;;;;;;5115710;28;20476;-73
2021/12/24 14:48:16;;;;;;;0.60;0.60;;;;;;;;;;5115726;28;20534;-73
2021/12/24 14:50:45;;;;;;;0.60;0.60;;;;;;;;;;5096970;28;20457;-73
2021/12/24 14:53:14;;;;;;;0.80;0.80;;;;;;;;;;5095315;28;20457;-72
2021/12/24 14:55:43;;;;;;;0.60;0.60;;;;;;;;;;5095200;28;20433;-73
2021/12/24 14:58:11;;;;;;;0.60;0.50;;;;;;;;;;5089659;28;20448;-73
2021/12/24 15:00:39;;;;;;;0.60;0.60;;;;;;;;;;5115353;28;20441;-72
2021/12/24 15:03:07;;;;;;;0.60;0.60;;;;;;;;;;5098424;28;21071;-73
2021/12/24 15:05:36;;;;;;;0.60;0.60;;;;;;;;;;5112890;28;20840;-72
2021/12/24 15:08:24;;;;;;;0.60;0.60;;;;;;;;;;5095162;28;20449;-71
2021/12/24 15:11:09;;;;;;;0.60;0.60;;;;;;;;;;5091338;28;20474;-73
2021/12/24 15:13:38;;;;;;;0.60;0.50;;;;;;;;;;5100150;28;21043;-72
2021/12/24 15:16:05;;;;;;;0.60;0.60;;;;;;;;;;5116814;28;20531;-73
2021/12/24 15:18:33;;;;;;;0.60;0.50;;;;;;;;;;5115749;28;20729;-71
2021/12/24 15:20:59;;;;;;;0.60;0.60;;;;;;;;;;5115973;28;20436;-72
2021/12/24 15:23:27;;;;;;;0.90;0.90;;;;;;;;;;5115183;28;20503;-71
2021/12/24 15:25:53;;;;;;;0.60;0.60;;;;;;;;;;5115330;28;20416;-74
2021/12/24 15:28:23;;;;;;;0.60;0.60;;;;;;;;;;5095347;28;20806;-73
2021/12/24 15:30:51;;;;;;;0.60;0.50;;;;;;;;;;5102643;28;20535;-72
2021/12/24 15:33:21;;;;;;;0.60;0.60;;;;;;;;;;5117152;28;20446;-73
2021/12/24 15:35:48;;;;;;;0.60;0.60;;;;;;;;;;5117600;28;20425;-73
2021/12/24 15:38:17;;;;;;;0.60;0.60;;;;;;;;;;5094888;28;20481;-72
2021/12/24 15:40:45;;;;;;;0.60;0.60;;;;;;;;;;5097678;28;20494;-74
2021/12/24 15:43:13;;;;;;;0.60;0.60;;;;;;;;;;5081717;28;20473;-74
2021/12/24 15:45:43;;;;;;;0.60;0.50;;;;;;;;;;5096715;28;20438;-72
2021/12/24 15:48:10;;;;;;;1.03;1.03;;;;;;;;;;5096021;28;20468;-72
2021/12/24 15:50:37;;;;;;;0.60;0.50;;;;;;;;;;5096852;28;20595;-72
2021/12/24 15:53:07;;;;;;;0.60;0.60;;;;;;;;;;5101260;28;20452;-72
2021/12/24 15:55:34;;;;;;;0.60;0.50;;;;;;;;;;5115141;28;20493;-72
2021/12/24 15:58:03;;;;;;;0.60;0.60;;;;;;;;;;5107874;28;20440;-74
2021/12/24 16:00:30;;;;;;;1.10;0.80;;;;;;;;;;5098396;28;20449;-73
2021/12/24 16:02:58;;;;;;;0.60;0.60;;;;;;;;;;5116106;28;20456;-71
2021/12/24 16:05:25;;;;;;;0.60;0.50;;;;;;;;;;5114214;28;20846;-72
2021/12/24 16:07:52;;;;;;;0.70;0.60;;;;;;;;;;5107482;28;20493;-72
2021/12/24 16:10:20;;;;;;;0.60;0.60;;;;;;;;;;5113679;28;20449;-71
2021/12/24 16:12:47;;;;;;;0.60;0.50;;;;;;;;;;5112928;28;20454;-71
2021/12/24 16:15:16;;;;;;;0.60;0.60;;;;;;;;;;5096875;28;20437;-72
2021/12/24 16:17:42;;;;;;;0.60;0.60;;;;;;;;;;5115193;28;20436;-71
2021/12/24 16:20:12;;;;;;;0.60;0.50;;;;;;;;;;5115510;28;20431;-71
2021/12/24 16:22:39;;;;;;;0.60;0.60;;;;;;;;;;5106912;28;20471;-72
2021/12/24 16:25:07;;;;;;;0.60;0.50;;;;;;;;;;5110866;27;20531;-72
2021/12/24 16:27:34;;;;;;;0.60;0.50;;;;;;;;;;5108584;28;20438;-72
2021/12/24 16:30:01;;;;;;;0.60;0.50;;;;;;;;;;5109663;28;20438;-72
2021/12/24 16:32:29;;;;;;;0.87;0.80;;;;;;;;;;5113481;28;20433;-71
2021/12/24 16:34:57;;;;;;;0.60;0.50;;;;;;;;;;5110030;28;20546;-72
2021/12/24 16:37:29;;;;;;;0.60;0.60;;;;;;;;;;5107151;28;20456;-72
2021/12/24 16:39:56;;;;;;;0.60;0.50;;;;;;;;;;5092664;28;20425;-72
2021/12/24 16:42:24;;;;;;;0.60;0.50;;;;;;;;;;5110084;28;20531;-73
2021/12/24 16:44:53;;;;;;;1.53;0.90;;;;;;;;;;5076925;28;20448;-73
2021/12/24 16:47:21;;;;;;;0.60;0.50;;;;;;;;;;5075522;28;20445;-73
2021/12/24 16:49:48;;;;;;;0.60;0.50;;;;;;;;;;5093143;28;20441;-72
2021/12/24 16:52:16;;;;;;;0.60;0.60;;;;;;;;;;5093072;28;20449;-71